sensor_id;sensor_type;location;lat;lon;timestamp;pressure;altitude;pressure_sealevel;temperature;humidity
26531;BME280;14201;43.188;24.160;2023-08-08T00:01:03;99469.28;;;17.19;100.00
26531;BME280;14201;43.188;24.160;2023-08-08T00:03:29;99471.03;;;17.21;100.00
26531;BME280;14201;43.188;24.160;2023-08-08T00:05:55;99482.50;;;17.25;99.94
26531;BME280;14201;43.188;24.160;2023-08-08T00:08:20;99488.72;;;17.30;99.91
26531;BME280;14201;43.188;24.160;2023-08-08T00:10:46;99482.84;;;17.51;98.55
26531;BME280;14201;43.188;24.160;2023-08-08T00:13:11;99461.91;;;17.63;95.82
26531;BME280;14201;43.188;24.160;2023-08-08T00:15:37;99475.38;;;17.89;94.03
26531;BME280;14201;43.188;24.160;2023-08-08T00:18:04;99476.28;;;17.92;93.63
26531;BME280;14201;43.188;24.160;2023-08-08T00:20:30;99464.72;;;17.83;92.24
26531;BME280;14201;43.188;24.160;2023-08-08T00:22:55;99473.56;;;17.84;93.14
26531;BME280;14201;43.188;24.160;2023-08-08T00:25:21;99459.47;;;17.82;94.29
26531;BME280;14201;43.188;24.160;2023-08-08T00:27:47;99458.69;;;17.90;94.48
26531;BME280;14201;43.188;24.160;2023-08-08T00:30:12;99459.78;;;18.11;91.92
26531;BME280;14201;43.188;24.160;2023-08-08T00:32:39;99466.00;;;18.24;90.67
26531;BME280;14201;43.188;24.160;2023-08-08T00:35:04;99473.06;;;18.25;90.06
26531;BME280;14201;43.188;24.160;2023-08-08T00:37:30;99464.28;;;18.24;88.83
26531;BME280;14201;43.188;24.160;2023-08-08T00:39:56;99487.28;;;18.45;88.38
26531;BME280;14201;43.188;24.160;2023-08-08T00:42:21;99495.19;;;18.45;89.38
26531;BME280;14201;43.188;24.160;2023-08-08T00:44:47;99496.22;;;18.64;89.83
26531;BME280;14201;43.188;24.160;2023-08-08T00:47:12;99489.25;;;18.71;88.05
26531;BME280;14201;43.188;24.160;2023-08-08T00:49:38;99478.66;;;18.68;86.23
26531;BME280;14201;43.188;24.160;2023-08-08T00:52:06;99468.25;;;18.83;86.12
26531;BME280;14201;43.188;24.160;2023-08-08T00:54:31;99433.97;;;18.91;84.87
26531;BME280;14201;43.188;24.160;2023-08-08T00:56:57;99436.66;;;18.99;85.83
26531;BME280;14201;43.188;24.160;2023-08-08T00:59:23;99442.88;;;19.12;87.10
26531;BME280;14201;43.188;24.160;2023-08-08T01:01:49;99438.47;;;19.06;88.50
26531;BME280;14201;43.188;24.160;2023-08-08T01:04:16;99456.13;;;19.28;88.62
26531;BME280;14201;43.188;24.160;2023-08-08T01:09:44;99471.09;;;19.25;87.05
26531;BME280;14201;43.188;24.160;2023-08-08T01:12:12;99474.63;;;19.30;85.79
26531;BME280;14201;43.188;24.160;2023-08-08T01:14:42;99482.56;;;19.35;85.44
26531;BME280;14201;43.188;24.160;2023-08-08T01:17:09;99489.59;;;19.26;85.91
26531;BME280;14201;43.188;24.160;2023-08-08T01:19:36;99501.75;;;19.00;87.27
26531;BME280;14201;43.188;24.160;2023-08-08T01:22:04;99493.63;;;18.67;88.84
26531;BME280;14201;43.188;24.160;2023-08-08T01:24:32;99492.75;;;18.72;89.21
26531;BME280;14201;43.188;24.160;2023-08-08T01:27:00;99500.59;;;18.62;86.28
26531;BME280;14201;43.188;24.160;2023-08-08T01:29:27;99501.22;;;18.29;88.41
26531;BME280;14201;43.188;24.160;2023-08-08T01:31:53;99501.13;;;18.20;87.82
26531;BME280;14201;43.188;24.160;2023-08-08T01:34:18;99496.69;;;18.13;89.34
26531;BME280;14201;43.188;24.160;2023-08-08T01:37:05;99501.28;;;18.37;87.56
26531;BME280;14201;43.188;24.160;2023-08-08T01:39:33;99496.94;;;18.43;88.79
26531;BME280;14201;43.188;24.160;2023-08-08T01:42:00;99489.09;;;18.49;87.98
26531;BME280;14201;43.188;24.160;2023-08-08T01:44:26;99500.44;;;18.41;88.15
26531;BME280;14201;43.188;24.160;2023-08-08T01:46:53;99494.47;;;18.65;87.14
26531;BME280;14201;43.188;24.160;2023-08-08T01:49:19;99501.56;;;18.69;87.35
26531;BME280;14201;43.188;24.160;2023-08-08T01:51:45;99506.75;;;18.63;88.99
26531;BME280;14201;43.188;24.160;2023-08-08T01:54:10;99514.75;;;18.69;88.77
26531;BME280;14201;43.188;24.160;2023-08-08T01:56:36;99518.94;;;18.45;89.21
26531;BME280;14201;43.188;24.160;2023-08-08T01:59:01;99523.94;;;18.15;92.00
26531;BME280;14201;43.188;24.160;2023-08-08T02:01:27;99531.16;;;18.34;90.85
26531;BME280;14201;43.188;24.160;2023-08-08T02:03:52;99537.28;;;18.33;90.91
26531;BME280;14201;43.188;24.160;2023-08-08T02:06:18;99528.31;;;18.13;91.09
26531;BME280;14201;43.188;24.160;2023-08-08T02:08:45;99537.22;;;18.25;90.88
26531;BME280;14201;43.188;24.160;2023-08-08T02:11:11;99546.94;;;18.31;91.01
26531;BME280;14201;43.188;24.160;2023-08-08T02:13:36;99545.13;;;18.24;91.35
26531;BME280;14201;43.188;24.160;2023-08-08T02:16:02;99551.44;;;18.41;90.39
26531;BME280;14201;43.188;24.160;2023-08-08T02:18:28;99549.69;;;18.45;90.24
26531;BME280;14201;43.188;24.160;2023-08-08T02:20:53;99548.88;;;18.50;89.24
26531;BME280;14201;43.188;24.160;2023-08-08T02:23:19;99555.13;;;18.60;88.84
26531;BME280;14201;43.188;24.160;2023-08-08T02:25:44;99545.44;;;18.62;88.47
26531;BME280;14201;43.188;24.160;2023-08-08T02:28:10;99548.06;;;18.61;89.82
26531;BME280;14201;43.188;24.160;2023-08-08T02:30:36;99547.13;;;18.53;90.75
26531;BME280;14201;43.188;24.160;2023-08-08T02:33:01;99556.09;;;18.72;89.23
26531;BME280;14201;43.188;24.160;2023-08-08T02:35:27;99562.22;;;18.70;87.72
26531;BME280;14201;43.188;24.160;2023-08-08T02:37:52;99566.63;;;18.67;87.84
26531;BME280;14201;43.188;24.160;2023-08-08T02:40:18;99563.91;;;18.61;88.10
26531;BME280;14201;43.188;24.160;2023-08-08T02:42:43;99570.06;;;18.60;88.41
26531;BME280;14201;43.188;24.160;2023-08-08T02:45:09;99570.03;;;18.58;88.64
26531;BME280;14201;43.188;24.160;2023-08-08T02:47:35;99581.31;;;18.40;89.89
26531;BME280;14201;43.188;24.160;2023-08-08T02:50:00;99579.63;;;18.47;89.57
26531;BME280;14201;43.188;24.160;2023-08-08T02:52:26;99589.25;;;18.43;89.55
26531;BME280;14201;43.188;24.160;2023-08-08T02:54:51;99586.59;;;18.43;90.23
26531;BME280;14201;43.188;24.160;2023-08-08T02:57:17;99588.38;;;18.43;91.39
26531;BME280;14201;43.188;24.160;2023-08-08T02:59:43;99594.41;;;18.31;90.97
26531;BME280;14201;43.188;24.160;2023-08-08T03:02:08;99601.53;;;18.40;89.95
26531;BME280;14201;43.188;24.160;2023-08-08T03:04:34;99604.25;;;18.46;89.44
26531;BME280;14201;43.188;24.160;2023-08-08T03:06:59;99614.72;;;18.38;90.36
26531;BME280;14201;43.188;24.160;2023-08-08T03:09:29;99616.44;;;18.36;91.12
26531;BME280;14201;43.188;24.160;2023-08-08T03:11:55;99608.47;;;18.30;91.49
26531;BME280;14201;43.188;24.160;2023-08-08T03:14:20;99586.41;;;18.23;90.85
26531;BME280;14201;43.188;24.160;2023-08-08T03:16:46;99603.03;;;18.15;90.06
26531;BME280;14201;43.188;24.160;2023-08-08T03:19:12;99610.28;;;18.34;89.79
26531;BME280;14201;43.188;24.160;2023-08-08T03:21:37;99605.06;;;18.43;89.36
26531;BME280;14201;43.188;24.160;2023-08-08T03:24:03;99611.28;;;18.48;88.75
26531;BME280;14201;43.188;24.160;2023-08-08T03:26:29;99613.06;;;18.49;89.52
26531;BME280;14201;43.188;24.160;2023-08-08T03:28:54;99607.91;;;18.62;88.67
26531;BME280;14201;43.188;24.160;2023-08-08T03:31:21;99619.38;;;18.67;87.63
26531;BME280;14201;43.188;24.160;2023-08-08T03:33:46;99629.94;;;18.67;87.92
26531;BME280;14201;43.188;24.160;2023-08-08T03:36:13;99628.19;;;18.69;87.93
26531;BME280;14201;43.188;24.160;2023-08-08T03:38:40;99625.56;;;18.69;87.75
26531;BME280;14201;43.188;24.160;2023-08-08T03:41:09;99636.22;;;18.80;86.70
26531;BME280;14201;43.188;24.160;2023-08-08T03:43:35;99629.22;;;18.82;86.20
26531;BME280;14201;43.188;24.160;2023-08-08T03:46:00;99637.94;;;18.78;86.75
26531;BME280;14201;43.188;24.160;2023-08-08T03:48:26;99646.72;;;18.75;86.50
26531;BME280;14201;43.188;24.160;2023-08-08T03:50:51;99644.03;;;18.72;87.43
26531;BME280;14201;43.188;24.160;2023-08-08T03:53:17;99644.97;;;18.77;87.95
26531;BME280;14201;43.188;24.160;2023-08-08T03:55:43;99635.22;;;18.70;88.99
26531;BME280;14201;43.188;24.160;2023-08-08T03:58:08;99630.88;;;18.75;89.15
26531;BME280;14201;43.188;24.160;2023-08-08T04:00:34;99651.97;;;18.74;88.65
26531;BME280;14201;43.188;24.160;2023-08-08T04:02:59;99657.28;;;18.75;89.26
26531;BME280;14201;43.188;24.160;2023-08-08T04:05:25;99652.84;;;18.74;88.77
26531;BME280;14201;43.188;24.160;2023-08-08T04:07:51;99659.84;;;18.70;88.52
26531;BME280;14201;43.188;24.160;2023-08-08T04:10:16;99647.53;;;18.68;89.25
26531;BME280;14201;43.188;24.160;2023-08-08T04:12:42;99654.63;;;18.74;89.56
26531;BME280;14201;43.188;24.160;2023-08-08T04:15:08;99651.09;;;18.73;86.47
26531;BME280;14201;43.188;24.160;2023-08-08T04:17:34;99641.00;;;18.30;86.01
26531;BME280;14201;43.188;24.160;2023-08-08T04:20:00;99649.16;;;18.54;88.10
26531;BME280;14201;43.188;24.160;2023-08-08T04:22:26;99649.22;;;18.63;86.48
26531;BME280;14201;43.188;24.160;2023-08-08T04:24:51;99638.69;;;18.61;88.26
26531;BME280;14201;43.188;24.160;2023-08-08T04:27:17;99632.44;;;18.52;87.79
26531;BME280;14201;43.188;24.160;2023-08-08T04:29:42;99629.91;;;18.65;87.54
26531;BME280;14201;43.188;24.160;2023-08-08T04:32:11;99643.22;;;18.75;87.51
26531;BME280;14201;43.188;24.160;2023-08-08T04:34:36;99651.97;;;18.74;87.17
26531;BME280;14201;43.188;24.160;2023-08-08T04:37:02;99643.13;;;18.68;87.30
26531;BME280;14201;43.188;24.160;2023-08-08T04:39:28;99651.13;;;18.75;87.59
26531;BME280;14201;43.188;24.160;2023-08-08T04:41:53;99663.50;;;18.82;88.91
26531;BME280;14201;43.188;24.160;2023-08-08T04:44:19;99674.16;;;18.89;89.35
26531;BME280;14201;43.188;24.160;2023-08-08T04:46:44;99678.22;;;18.58;89.03
26531;BME280;14201;43.188;24.160;2023-08-08T04:49:10;99675.13;;;18.18;90.51
26531;BME280;14201;43.188;24.160;2023-08-08T04:51:36;99697.63;;;17.93;92.52
26531;BME280;14201;43.188;24.160;2023-08-08T04:54:01;99697.44;;;17.78;94.70
26531;BME280;14201;43.188;24.160;2023-08-08T04:56:27;99692.97;;;17.75;95.59
26531;BME280;14201;43.188;24.160;2023-08-08T04:58:53;99698.25;;;17.75;96.10
26531;BME280;14201;43.188;24.160;2023-08-08T05:01:19;99702.59;;;17.71;97.68
26531;BME280;14201;43.188;24.160;2023-08-08T05:03:46;99691.13;;;17.69;97.58
26531;BME280;14201;43.188;24.160;2023-08-08T05:06:11;99707.06;;;17.77;98.66
26531;BME280;14201;43.188;24.160;2023-08-08T05:08:37;99716.75;;;17.78;98.93
26531;BME280;14201;43.188;24.160;2023-08-08T05:11:02;99701.19;;;17.94;94.83
26531;BME280;14201;43.188;24.160;2023-08-08T05:13:28;99703.16;;;18.12;95.49
26531;BME280;14201;43.188;24.160;2023-08-08T05:15:54;99705.97;;;18.25;94.59
26531;BME280;14201;43.188;24.160;2023-08-08T05:18:19;99722.13;;;18.55;93.12
26531;BME280;14201;43.188;24.160;2023-08-08T05:20:45;99715.78;;;18.37;92.36
26531;BME280;14201;43.188;24.160;2023-08-08T05:23:10;99727.31;;;18.47;89.75
26531;BME280;14201;43.188;24.160;2023-08-08T05:25:36;99723.03;;;18.54;90.46
26531;BME280;14201;43.188;24.160;2023-08-08T05:28:02;99721.31;;;18.59;89.26
26531;BME280;14201;43.188;24.160;2023-08-08T05:30:28;99728.47;;;18.69;86.87
26531;BME280;14201;43.188;24.160;2023-08-08T05:32:53;99720.75;;;18.86;86.13
26531;BME280;14201;43.188;24.160;2023-08-08T05:35:19;99731.31;;;18.87;84.72
26531;BME280;14201;43.188;24.160;2023-08-08T05:37:44;99713.78;;;18.93;83.68
26531;BME280;14201;43.188;24.160;2023-08-08T05:40:10;99721.66;;;18.86;81.74
26531;BME280;14201;43.188;24.160;2023-08-08T05:42:37;99714.63;;;18.92;84.66
26531;BME280;14201;43.188;24.160;2023-08-08T05:45:03;99697.03;;;18.91;82.91
26531;BME280;14201;43.188;24.160;2023-08-08T05:47:29;99714.88;;;19.16;78.15
26531;BME280;14201;43.188;24.160;2023-08-08T05:49:55;99725.38;;;19.13;79.56
26531;BME280;14201;43.188;24.160;2023-08-08T05:52:20;99695.50;;;19.14;82.24
26531;BME280;14201;43.188;24.160;2023-08-08T05:54:47;99730.84;;;19.35;83.26
26531;BME280;14201;43.188;24.160;2023-08-08T05:57:12;99729.13;;;19.37;82.38
26531;BME280;14201;43.188;24.160;2023-08-08T05:59:38;99730.09;;;19.46;81.87
26531;BME280;14201;43.188;24.160;2023-08-08T06:02:04;99745.88;;;19.40;83.97
26531;BME280;14201;43.188;24.160;2023-08-08T06:04:29;99730.84;;;19.35;82.00
26531;BME280;14201;43.188;24.160;2023-08-08T06:06:55;99748.53;;;19.39;82.99
26531;BME280;14201;43.188;24.160;2023-08-08T06:09:21;99771.56;;;19.58;85.35
26531;BME280;14201;43.188;24.160;2023-08-08T06:11:47;99765.59;;;19.78;86.96
26531;BME280;14201;43.188;24.160;2023-08-08T06:14:13;99764.91;;;20.13;79.38
26531;BME280;14201;43.188;24.160;2023-08-08T06:16:39;99766.63;;;20.01;76.03
26531;BME280;14201;43.188;24.160;2023-08-08T06:19:04;99756.03;;;20.04;74.81
26531;BME280;14201;43.188;24.160;2023-08-08T06:21:31;99752.59;;;20.15;71.91
26531;BME280;14201;43.188;24.160;2023-08-08T06:23:57;99765.03;;;20.34;72.75
26531;BME280;14201;43.188;24.160;2023-08-08T06:26:23;99758.09;;;20.64;73.05
26531;BME280;14201;43.188;24.160;2023-08-08T06:28:49;99759.06;;;21.03;70.67
26531;BME280;14201;43.188;24.160;2023-08-08T06:31:17;99744.97;;;21.36;70.04
26531;BME280;14201;43.188;24.160;2023-08-08T06:33:43;99750.31;;;21.59;68.33
26531;BME280;14201;43.188;24.160;2023-08-08T06:36:09;99746.75;;;21.71;67.00
26531;BME280;14201;43.188;24.160;2023-08-08T06:38:34;99749.38;;;21.94;67.50
26531;BME280;14201;43.188;24.160;2023-08-08T06:41:03;99759.94;;;22.16;67.87
26531;BME280;14201;43.188;24.160;2023-08-08T06:43:29;99751.84;;;22.59;64.89
26531;BME280;14201;43.188;24.160;2023-08-08T06:45:55;99748.00;;;23.14;64.75
26531;BME280;14201;43.188;24.160;2023-08-08T06:48:21;99750.34;;;23.52;63.65
26531;BME280;14201;43.188;24.160;2023-08-08T06:50:47;99751.84;;;23.84;60.31
26531;BME280;14201;43.188;24.160;2023-08-08T06:53:12;99759.81;;;23.84;57.86
26531;BME280;14201;43.188;24.160;2023-08-08T06:55:38;99761.31;;;24.13;59.92
26531;BME280;14201;43.188;24.160;2023-08-08T06:58:04;99766.25;;;24.47;58.90
26531;BME280;14201;43.188;24.160;2023-08-08T07:00:29;99767.06;;;24.53;54.83
26531;BME280;14201;43.188;24.160;2023-08-08T07:02:55;99767.38;;;23.28;55.41
26531;BME280;14201;43.188;24.160;2023-08-08T07:05:21;99767.00;;;23.79;56.05
26531;BME280;14201;43.188;24.160;2023-08-08T07:07:49;99772.91;;;24.07;54.01
26531;BME280;14201;43.188;24.160;2023-08-08T07:10:15;99776.25;;;24.23;56.53
26531;BME280;14201;43.188;24.160;2023-08-08T07:12:41;99770.66;;;24.51;52.99
26531;BME280;14201;43.188;24.160;2023-08-08T07:15:08;99775.94;;;24.54;53.77
26531;BME280;14201;43.188;24.160;2023-08-08T07:17:33;99783.91;;;24.55;51.31
26531;BME280;14201;43.188;24.160;2023-08-08T07:19:59;99784.66;;;24.65;51.36
26531;BME280;14201;43.188;24.160;2023-08-08T07:22:25;99780.91;;;24.82;51.26
26531;BME280;14201;43.188;24.160;2023-08-08T07:24:51;99769.28;;;24.87;49.94
26531;BME280;14201;43.188;24.160;2023-08-08T07:27:17;99782.78;;;24.73;49.57
26531;BME280;14201;43.188;24.160;2023-08-08T07:29:42;99780.91;;;24.82;49.92
26531;BME280;14201;43.188;24.160;2023-08-08T07:32:08;99769.09;;;25.00;49.78
26531;BME280;14201;43.188;24.160;2023-08-08T07:34:34;99764.25;;;25.28;49.33
26531;BME280;14201;43.188;24.160;2023-08-08T07:37:00;99770.25;;;25.42;48.69
26531;BME280;14201;43.188;24.160;2023-08-08T07:39:25;99770.72;;;25.69;48.43
26531;BME280;14201;43.188;24.160;2023-08-08T07:41:52;99768.66;;;25.83;48.20
26531;BME280;14201;43.188;24.160;2023-08-08T07:44:18;99771.78;;;26.10;46.58
26531;BME280;14201;43.188;24.160;2023-08-08T07:46:44;99783.91;;;26.26;46.82
26531;BME280;14201;43.188;24.160;2023-08-08T07:49:09;99783.19;;;26.18;47.42
26531;BME280;14201;43.188;24.160;2023-08-08T07:51:35;99782.38;;;26.58;46.96
26531;BME280;14201;43.188;24.160;2023-08-08T07:54:01;99779.75;;;26.55;47.83
26531;BME280;14201;43.188;24.160;2023-08-08T07:56:27;99771.69;;;26.58;44.44
26531;BME280;14201;43.188;24.160;2023-08-08T07:58:52;99776.19;;;26.11;46.48
26531;BME280;14201;43.188;24.160;2023-08-08T08:01:18;99783.41;;;26.51;45.32
26531;BME280;14201;43.188;24.160;2023-08-08T08:03:44;99781.63;;;26.50;46.07
26531;BME280;14201;43.188;24.160;2023-08-08T08:06:11;99779.75;;;26.55;44.21
26531;BME280;14201;43.188;24.160;2023-08-08T08:08:37;99773.56;;;26.53;46.23
26531;BME280;14201;43.188;24.160;2023-08-08T08:11:02;99787.09;;;26.44;44.15
26531;BME280;14201;43.188;24.160;2023-08-08T08:13:28;99787.09;;;26.00;44.49
26531;BME280;14201;43.188;24.160;2023-08-08T08:15:54;99771.66;;;26.60;45.53
26531;BME280;14201;43.188;24.160;2023-08-08T08:18:19;99790.50;;;26.96;44.46
26531;BME280;14201;43.188;24.160;2023-08-08T08:20:46;99775.66;;;27.20;43.88
26531;BME280;14201;43.188;24.160;2023-08-08T08:23:12;99781.16;;;27.53;43.15
26531;BME280;14201;43.188;24.160;2023-08-08T08:25:38;99784.56;;;27.59;43.01
26531;BME280;14201;43.188;24.160;2023-08-08T08:28:04;99780.13;;;27.58;43.30
26531;BME280;14201;43.188;24.160;2023-08-08T08:30:29;99792.03;;;27.81;43.66
26531;BME280;14201;43.188;24.160;2023-08-08T08:32:55;99790.19;;;27.83;42.48
26531;BME280;14201;43.188;24.160;2023-08-08T08:35:22;99793.97;;;28.10;41.35
26531;BME280;14201;43.188;24.160;2023-08-08T08:37:48;99797.00;;;28.31;41.33
26531;BME280;14201;43.188;24.160;2023-08-08T08:40:14;99793.34;;;28.33;41.14
26531;BME280;14201;43.188;24.160;2023-08-08T08:42:40;99794.34;;;28.29;40.91
26531;BME280;14201;43.188;24.160;2023-08-08T08:45:08;99783.84;;;28.54;40.51
26531;BME280;14201;43.188;24.160;2023-08-08T08:47:36;99794.59;;;28.82;42.04
26531;BME280;14201;43.188;24.160;2023-08-08T08:50:02;99787.81;;;29.00;40.49
26531;BME280;14201;43.188;24.160;2023-08-08T08:52:29;99778.66;;;28.78;39.55
26531;BME280;14201;43.188;24.160;2023-08-08T08:54:56;99788.97;;;28.31;41.29
26531;BME280;14201;43.188;24.160;2023-08-08T08:57:22;99786.91;;;28.72;40.58
26531;BME280;14201;43.188;24.160;2023-08-08T08:59:51;99780.09;;;28.90;40.75
26531;BME280;14201;43.188;24.160;2023-08-08T09:02:18;99778.09;;;28.66;38.29
26531;BME280;14201;43.188;24.160;2023-08-08T09:04:45;99778.34;;;28.59;40.73
26531;BME280;14201;43.188;24.160;2023-08-08T09:07:11;99776.44;;;28.31;40.27
26531;BME280;14201;43.188;24.160;2023-08-08T09:09:37;99771.09;;;28.30;39.29
26531;BME280;14201;43.188;24.160;2023-08-08T09:12:04;99761.75;;;28.13;40.05
26531;BME280;14201;43.188;24.160;2023-08-08T09:14:30;99767.56;;;28.29;40.11
26531;BME280;14201;43.188;24.160;2023-08-08T09:16:56;99764.56;;;28.40;40.87
26531;BME280;14201;43.188;24.160;2023-08-08T09:19:23;99758.94;;;28.49;38.76
26531;BME280;14201;43.188;24.160;2023-08-08T09:21:50;99758.31;;;28.08;38.09
26531;BME280;14201;43.188;24.160;2023-08-08T09:24:16;99760.94;;;27.75;40.97
26531;BME280;14201;43.188;24.160;2023-08-08T09:26:43;99762.88;;;28.04;40.30
26531;BME280;14201;43.188;24.160;2023-08-08T09:29:14;99758.63;;;27.61;41.29
26531;BME280;14201;43.188;24.160;2023-08-08T09:31:42;99771.53;;;28.14;41.30
26531;BME280;14201;43.188;24.160;2023-08-08T09:34:08;99773.13;;;28.54;39.80
26531;BME280;14201;43.188;24.160;2023-08-08T09:36:34;99760.00;;;28.43;39.03
26531;BME280;14201;43.188;24.160;2023-08-08T09:39:02;99773.41;;;28.11;40.34
26531;BME280;14201;43.188;24.160;2023-08-08T09:41:28;99780.16;;;28.58;41.01
26531;BME280;14201;43.188;24.160;2023-08-08T09:43:54;99770.19;;;28.63;38.70
26531;BME280;14201;43.188;24.160;2023-08-08T09:46:20;99761.63;;;28.79;39.84
26531;BME280;14201;43.188;24.160;2023-08-08T09:48:46;99772.38;;;28.79;38.52
26531;BME280;14201;43.188;24.160;2023-08-08T09:51:12;99772.97;;;28.89;38.58
26531;BME280;14201;43.188;24.160;2023-08-08T09:53:39;99764.38;;;29.05;38.79
26531;BME280;14201;43.188;24.160;2023-08-08T09:56:06;99769.06;;;29.29;37.54
26531;BME280;14201;43.188;24.160;2023-08-08T09:58:32;99762.91;;;29.25;37.35
26531;BME280;14201;43.188;24.160;2023-08-08T10:00:58;99764.56;;;29.29;38.59
26531;BME280;14201;43.188;24.160;2023-08-08T10:03:24;99768.03;;;29.04;38.05
26531;BME280;14201;43.188;24.160;2023-08-08T10:05:49;99768.81;;;29.08;37.78
26531;BME280;14201;43.188;24.160;2023-08-08T10:08:16;99750.56;;;28.91;38.34
26531;BME280;14201;43.188;24.160;2023-08-08T10:10:44;99773.16;;;28.53;40.41
26531;BME280;14201;43.188;24.160;2023-08-08T10:13:22;99764.38;;;29.05;38.54
26531;BME280;14201;43.188;24.160;2023-08-08T10:15:48;99767.47;;;28.93;38.87
26531;BME280;14201;43.188;24.160;2023-08-08T10:18:14;99763.94;;;29.21;37.97
26531;BME280;14201;43.188;24.160;2023-08-08T10:20:43;99762.19;;;29.47;39.12
26531;BME280;14201;43.188;24.160;2023-08-08T10:23:10;99747.25;;;29.39;37.34
26531;BME280;14201;43.188;24.160;2023-08-08T10:25:36;99750.22;;;29.83;36.97
26531;BME280;14201;43.188;24.160;2023-08-08T10:28:13;99748.06;;;30.18;37.37
26531;BME280;14201;43.188;24.160;2023-08-08T10:30:47;99746.34;;;30.17;37.13
26531;BME280;14201;43.188;24.160;2023-08-08T10:33:20;99757.31;;;30.11;37.16
26531;BME280;14201;43.188;24.160;2023-08-08T10:36:05;99749.59;;;30.26;36.39
26531;BME280;14201;43.188;24.160;2023-08-08T10:38:45;99750.66;;;30.21;37.03
26531;BME280;14201;43.188;24.160;2023-08-08T10:41:18;99733.81;;;30.41;36.04
26531;BME280;14201;43.188;24.160;2023-08-08T10:43:52;99727.78;;;30.35;34.31
26531;BME280;14201;43.188;24.160;2023-08-08T10:46:28;99724.56;;;29.75;35.49
26531;BME280;14201;43.188;24.160;2023-08-08T10:48:57;99718.09;;;29.54;35.63
26531;BME280;14201;43.188;24.160;2023-08-08T10:51:36;99722.94;;;29.69;35.51
26531;BME280;14201;43.188;24.160;2023-08-08T10:54:06;99722.88;;;29.97;36.16
26531;BME280;14201;43.188;24.160;2023-08-08T10:56:35;99729.97;;;30.23;34.74
26531;BME280;14201;43.188;24.160;2023-08-08T10:59:13;99719.09;;;29.78;34.75
26531;BME280;14201;43.188;24.160;2023-08-08T11:01:40;99716.25;;;29.82;34.84
26531;BME280;14201;43.188;24.160;2023-08-08T11:04:06;99723.56;;;30.02;34.98
26531;BME280;14201;43.188;24.160;2023-08-08T11:06:32;99722.22;;;30.39;34.53
26531;BME280;14201;43.188;24.160;2023-08-08T11:09:00;99720.34;;;30.89;34.34
26531;BME280;14201;43.188;24.160;2023-08-08T11:11:26;99719.25;;;30.47;33.17
26531;BME280;14201;43.188;24.160;2023-08-08T11:13:52;99718.06;;;29.82;34.80
26531;BME280;14201;43.188;24.160;2023-08-08T11:16:18;99725.81;;;30.40;34.95
26531;BME280;14201;43.188;24.160;2023-08-08T11:18:45;99731.50;;;30.32;33.86
26531;BME280;14201;43.188;24.160;2023-08-08T11:21:11;99731.06;;;30.18;34.52
26531;BME280;14201;43.188;24.160;2023-08-08T11:23:37;99728.25;;;30.22;34.85
26531;BME280;14201;43.188;24.160;2023-08-08T11:26:04;99722.66;;;30.03;34.28
26531;BME280;14201;43.188;24.160;2023-08-08T11:28:30;99727.25;;;29.75;34.90
26531;BME280;14201;43.188;24.160;2023-08-08T11:30:55;99730.13;;;29.95;36.49
26531;BME280;14201;43.188;24.160;2023-08-08T11:33:21;99729.66;;;30.33;35.41
26531;BME280;14201;43.188;24.160;2023-08-08T11:35:47;99710.34;;;30.69;34.73
26531;BME280;14201;43.188;24.160;2023-08-08T11:38:15;99715.66;;;30.94;34.16
26531;BME280;14201;43.188;24.160;2023-08-08T11:40:41;99729.84;;;30.52;33.91
26531;BME280;14201;43.188;24.160;2023-08-08T11:43:07;99735.25;;;30.74;34.21
26531;BME280;14201;43.188;24.160;2023-08-08T11:45:34;99708.84;;;30.61;33.65
26531;BME280;14201;43.188;24.160;2023-08-08T11:48:00;99717.81;;;30.84;34.34
26531;BME280;14201;43.188;24.160;2023-08-08T11:50:26;99710.84;;;30.78;34.00
26531;BME280;14201;43.188;24.160;2023-08-08T11:52:54;99715.84;;;30.89;33.87
26531;BME280;14201;43.188;24.160;2023-08-08T11:55:21;99716.31;;;31.00;35.07
26531;BME280;14201;43.188;24.160;2023-08-08T11:57:48;99710.91;;;31.23;34.47
26531;BME280;14201;43.188;24.160;2023-08-08T12:00:15;99708.03;;;31.05;32.16
26531;BME280;14201;43.188;24.160;2023-08-08T12:02:44;99712.22;;;31.12;33.42
26531;BME280;14201;43.188;24.160;2023-08-08T12:05:12;99712.03;;;31.17;33.69
26531;BME280;14201;43.188;24.160;2023-08-08T12:07:39;99703.69;;;31.23;33.90
26531;BME280;14201;43.188;24.160;2023-08-08T12:10:28;99706.63;;;31.17;34.39
26531;BME280;14201;43.188;24.160;2023-08-08T12:12:55;99711.66;;;31.26;33.52
26531;BME280;14201;43.188;24.160;2023-08-08T12:15:23;99708.38;;;31.40;33.93
26531;BME280;14201;43.188;24.160;2023-08-08T12:17:48;99710.28;;;31.16;35.01
26531;BME280;14201;43.188;24.160;2023-08-08T12:20:15;99700.00;;;31.48;34.90
26531;BME280;14201;43.188;24.160;2023-08-08T12:22:41;99699.28;;;31.65;33.07
26531;BME280;14201;43.188;24.160;2023-08-08T12:25:06;99702.03;;;31.63;32.98
26531;BME280;14201;43.188;24.160;2023-08-08T12:27:33;99699.34;;;31.63;32.80
26531;BME280;14201;43.188;24.160;2023-08-08T12:29:59;99703.44;;;31.51;33.57
26531;BME280;14201;43.188;24.160;2023-08-08T12:32:26;99706.06;;;31.73;33.73
26531;BME280;14201;43.188;24.160;2023-08-08T12:34:54;99712.53;;;31.90;33.92
26531;BME280;14201;43.188;24.160;2023-08-08T12:37:21;99699.22;;;31.66;32.79
26531;BME280;14201;43.188;24.160;2023-08-08T12:39:46;99696.09;;;31.33;33.08
26531;BME280;14201;43.188;24.160;2023-08-08T12:42:12;99696.13;;;31.11;33.16
26531;BME280;14201;43.188;24.160;2023-08-08T12:44:38;99707.28;;;31.24;33.52
26531;BME280;14201;43.188;24.160;2023-08-08T12:47:03;99702.91;;;31.42;32.68
26531;BME280;14201;43.188;24.160;2023-08-08T12:49:29;99700.81;;;31.50;32.39